Airfield :
LOGIN :

Register | Disclaimer

   EN    FR    IT 

 










Legend :    VFR   Marginal VFR   IFR   Intensive IFR   Very Intensive IFR
Visi :
Ceiling :
>= 8 km
>= 3000ft
5 to 8 km
1000 to 3000 ft
1500m to 5 km
500 to 1000 ft
800 to 1500m
200 to 500 ft
< 800m
< 200 ft
Symbols :   Thunderstorms  Fog  Heavy snow  Heavy precipitations  Wind > 20 kt
SIGMETs :     Misc.  Thunderstorms  Icing  Turbulence  Mountain Waves  Volcanic Ashes







- Airport Elevation : 416 ft
- IATA code : OVD


LEAS - Asturias

CURRENT METAR :
  • 160730Z 09003KT 050V120 CAVOK 16/10 Q1021 NOSIG

EXPIRED METARs :
  • 160700Z 00000KT CAVOK 16/10 Q1021 NOSIG
  • 160630Z 00000KT CAVOK 15/10 Q1021 NOSIG
  • 160600Z VRB01KT CAVOK 13/10 Q1021 NOSIG
  • 160530Z 00000KT CAVOK 12/10 Q1020 NOSIG
  • 160500Z 00000KT CAVOK 12/10 Q1020 NOSIG

TAF TAF LEAS
Valid from the 16 at 03:00 until the 17 at 03:00 UTC


160200Z 1603/1703 20005KT 9999 SCT050 TX18/1614Z TN10/1606Z
BECMG 1609/1613 04010KT
BECMG 1618/1622 VRB03KT
No reported NOTAMs for that airfield.



MET'MAP, your aeronautical weather chart ! - Copyright ORBIFLY December 2007 - Disclaimer

ORBIFLY MET'MAP TEAM :

Programming & Development : Alexandra Zaïnal
Concept & Development : Baudouin d'Aumeries
Co-Development & Prog : Marc-Olivier Méhu
Technical & hardware support : Manuel Goepfert

Contact : metmap@orbifly.com




SOURCES & CREDITS :

   NOAA